< < Back
Terminal Aerodrome Forecast


Current Version              Previous Versions:   1  2  3  4  5  6  7  8  9  

Terminal Aerodrome Forecast

490
FTUS42 KFFC 270158 AAB
TAFFTY
TAF AMD
KFTY 270158Z 2702/2724 20005KT P6SM VCSH SCT060
     FM270900 15004KT P6SM SCT040 BKN120
     FM271500 15004KT P6SM BKN050=

Latest METAR

792
SAUS70 KWBC 270600 RRC
MTRFTY
METAR KFTY 270553Z 00000KT 10SM FEW070 21/18 A3008 RMK AO2 SLP175
T02110178 10294 20211 50000


USA.gov is the U.S. government's official web portal to all federal, state and local government web resources and services.